x

Buoy B01 - Western Maine Shelf (44030) Wave Buoy

9:04am - Fri 24th Oct 2014 All times are EDT. -4 hours from GMT.

  • Sig Wave height 9.5ft
  • Peak Period 11s
  • Wind
    20mph, 25mph gusts
  • Sea Temp 54°f
  • 空気 Temp 49°f
  • Sea Pressure 1003.9mb
  • Buoy B01 - Western Maine Shelf
  • Buoy B01 - Western Maine Shelf

More Historic Weather Station data

Upgrade to MSW Pro to gain access to the past 30 days of data for over 8000 Wavebouys and Weather Stations around the globe.

Join Pro

Comparision Forecast

View Surf forecast
   
Fri 10/24 9:04am 9.5ft 11s 20 25 mph 1003.9mb 54f 49f
8:04am 9ft 11s 20 27 mph 1003.5mb 54f 49f
7:04am 9ft 8s 22 27 mph 1003.1mb 54f 49f
6:04am 10ft 11s 22 29 mph 1003.1mb 54f 49f
5:04am 10ft 11s 25 29 mph 1003mb 54f 49f
4:04am 11ft 11s 25 31 mph 1002.5mb 54f 50f
3:04am 11ft 11s 25 29 mph 1002.4mb 54f 50f
2:04am 11ft 11s 27 31 mph 1002.8mb 54f 50f
1:04am 10ft 11s 29 31 mph 1003mb 54f 50f
12:04am 12ft 11s 27 31 mph 1003mb 54f 51f
Thu 10/23 11:04pm 12.5ft 11s 27 34 mph 1003.3mb 54f 51f
10:04pm 14ft 11s 22 38 mph 1003.4mb 54f 51f
9:04pm 12ft 11s 29 40 mph 1003.9mb 54f 52f
8:04pm 13ft 11s 31 36 mph 1003.8mb 54f 52f
7:04pm 12.5ft 11s 31 38 mph 1003.8mb 54f 52f
6:04pm 13ft 11s 29 38 mph 1003.8mb 54f 53f
5:04pm 14ft 11s 31 40 mph 1003.6mb 54f 53f
4:04pm 12.5ft 11s 31 38 mph 1003.3mb 54f 53f
3:04pm 11.5ft 11s 29 34 mph 1003.5mb 54f 53f
2:04pm 13ft 11s 31 36 mph 1003.6mb 54f 53f
1:04pm 13ft 11s 34 38 mph 1003.6mb 54f 52f
12:04pm 14.5ft 11s 31 38 mph 1003.9mb 54f 52f
11:04am 16.5ft 11s 36 43 mph 1003.8mb 54f 52f
10:04am 14ft 11s 38 47 mph 1003.3mb 54f 52f
9:04am 14ft 11s 36 47 mph 1003.6mb 54f 52f
8:04am 15ft 11s 36 43 mph 1004.1mb 54f 51f
7:04am 15.5ft 11s 38 45 mph 1004.4mb 54f 51f
6:04am 15ft 11s 36 43 mph 1005.8mb 54f 51f
5:04am  -   -  34 40 mph 1006.5mb 55f 51f
4:04am 15.5ft 8s 36 43 mph 1007.1mb 55f 51f
3:04am 15ft 11s 34 40 mph 1007.7mb 55f 51f
2:04am 14.5ft 11s 36 43 mph 1008.8mb 55f 51f
1:04am 15.5ft 11s 36 45 mph 1009.3mb 55f 51f
12:04am 16.5ft 11s 36 49 mph 1010.4mb 55f 51f
Wed 10/22 11:04pm 15ft 11s 36 47 mph 1011.7mb 55f 51f
10:04pm 17.5ft 11s 38 47 mph 1012.1mb 55f 51f
9:04pm 22.5ft 11s 36 45 mph 1012.6mb 55f 51f
8:04pm  -   -  36 47 mph 1013mb 55f 51f
7:04pm 17ft 11s 38 47 mph 1013.3mb 55f 51f
6:04pm 14.5ft 11s 36 43 mph 1014.1mb 55f 51f
5:04pm 14ft 8s 34 40 mph 1014.2mb 54f 50f
4:04pm 14ft 11s 34 45 mph 1014mb 54f 50f
3:04pm 12ft 8s 34 43 mph 1013.7mb 55f 50f
2:04pm 11.5ft 8s 29 36 mph 1014.5mb 55f 51f
1:04pm 11ft 11s 31 38 mph 1014.6mb 55f 51f
12:04pm 11ft 8s 29 36 mph 1015.3mb 55f 51f
11:04am 10ft 8s 27 34 mph 1016.2mb 55f 51f
10:04am 11ft 8s 27 34 mph 1016.5mb 55f 51f
9:04am 9ft 8s 27 34 mph 1016.7mb 55f 51f
8:04am 10ft 8s 29 34 mph 1016.4mb 55f 52f
7:04am 10ft 8s 29 36 mph 1016.3mb 54f 53f
6:04am 8.5ft 8s 29 36 mph 1015.9mb 54f 54f
5:04am 8ft 6s 27 34 mph 1015.4mb 54f 55f
4:04am 6.5ft 6s 27 31 mph 1014.8mb 55f 55f
3:04am 5ft 6s 22 27 mph 1014.4mb 55f 55f
2:04am 4.5ft 6s 9 13 mph 1014.5mb 55f 56f
1:04am 4.5ft 6s 20 22 mph 1014.6mb 55f 51f
12:04am 4ft 6s 22 27 mph 1014.6mb 55f 51f
Tue 10/21 11:04pm 4ft 6s 20 22 mph 1014.5mb 55f 52f
10:04pm 4ft 6s 18 20 mph 1014.3mb 55f 53f
9:04pm 3.5ft 6s 13 16 mph 1013.7mb 55f 56f
8:04pm 4.5ft 6s 11
mph
1013.4mb 56f 56f
7:04pm 4ft 6s 9 11 mph 1013.5mb 56f 56f
6:04pm 3ft 5s 9 11 mph 1013.5mb 55f 55f
5:04pm 2.5ft 5s 4
mph
1013.5mb 55f 55f
4:04pm 2.5ft 5s 4 7 mph 1013.2mb 55f 56f
3:04pm 2ft 4s 4 7 mph 1013.5mb 55f 56f
2:04pm 1.6ft 4s 7 9 mph 1013.2mb 55f 56f
1:04pm 2ft 4s 9 11 mph 1013.5mb 55f 56f
12:04pm 2ft 4s 9 11 mph 1014mb 55f 56f
11:04am 1.6ft 4s 7
mph
1014.4mb 55f 56f
10:04am 1.3ft 5s 9
mph
1014.8mb 55f 56f
9:04am 2ft 11s 9 11 mph 1014.6mb 54f 55f
8:04am 1.6ft 11s 11
mph
1014.5mb 54f 54f
7:04am 1.6ft 11s 9 11 mph 1014.3mb 54f 53f
6:04am 2ft 8s 7
mph
1014.6mb 54f 52f
5:04am 2.5ft 11s 2 4 mph 1014.8mb 54f 52f
4:04am  -   -  7
mph
1014.6mb 54f 52f
3:04am 2.5ft 11s 7 9 mph 1014.8mb 54f 53f
2:04am 2.5ft 11s 9 11 mph 1014.8mb 54f 53f
1:04am 2ft 3s 11 13 mph 1014.9mb 54f 53f
12:04am 2ft 4s 13 18 mph 1014.6mb 55f 53f
Mon 10/20 11:04pm 2ft 4s 16 18 mph 1014.3mb 54f 53f
10:04pm 1.6ft 3s 18 20 mph 1014.2mb 54f 54f
9:04pm 2.5ft 11s 11 13 mph 1014mb 54f 54f
8:04pm 1.6ft 3s 13 16 mph 1013.5mb 54f 54f
7:04pm 1.6ft 3s 11 13 mph 1013.5mb 54f 54f
6:04pm  -   -  11 13 mph 1013.4mb 54f 54f
5:04pm 2.5ft 11s 9
mph
1013mb 55f 53f
4:04pm 1.3ft 3s 13 16 mph 1013mb 55f 52f
3:04pm 2.5ft 11s 13 18 mph 1012.9mb 54f 51f